Time;durP1;ratioP1;P1;durP2;ratioP2;P2;SDS_P1;SDS_P2;PMS_P1;PMS_P2;Temp;Humidity;BMP_temperature;BMP_pressure;BME280_temperature;BME280_humidity;BME280_pressure;Samples;Min_cycle;Max_cycle;Signal;HPM_P1;HPM_P2
2022/02/25 00:02:08;;;;;;;9.93;2.30;;;;;;;12.67;42.52;101557.31;4935994;29;20128;-79
2022/02/25 00:04:33;;;;;;;9.68;2.28;;;;;;;12.87;42.03;101564.31;4935745;29;20487;-79
2022/02/25 00:06:59;;;;;;;5.03;1.80;;;;;;;12.52;42.71;101568.63;4935971;29;20058;-79
2022/02/25 00:09:25;;;;;;;6.70;1.92;;;;;;;12.52;43.08;101579.59;4918533;29;20393;-79
2022/02/25 00:11:51;;;;;;;11.50;2.67;;;;;;;12.22;43.89;101567.28;4935645;29;20040;-79
2022/02/25 00:14:16;;;;;;;8.43;2.15;;;;;;;12.25;44.02;101577.66;4935769;29;20026;-79
2022/02/25 00:16:42;;;;;;;6.47;2.00;;;;;;;11.87;45.43;101575.09;4935682;29;20036;-79
2022/02/25 00:19:08;;;;;;;4.38;1.50;;;;;;;12.03;46.15;101588.50;4935680;29;20043;-79
2022/02/25 00:21:33;;;;;;;8.48;1.80;;;;;;;12.37;45.47;101590.84;4918688;29;20442;-79
2022/02/25 00:23:59;;;;;;;11.82;1.70;;;;;;;12.43;45.25;101598.66;4935610;29;20042;-79
2022/02/25 00:26:25;;;;;;;7.03;2.33;;;;;;;12.50;44.94;101607.31;4918497;29;20126;-79
2022/02/25 00:28:50;;;;;;;10.30;3.05;;;;;;;12.94;43.69;101605.03;4935512;29;20122;-79
2022/02/25 00:31:16;;;;;;;5.82;1.77;;;;;;;12.81;43.91;101617.63;4935535;29;20095;-79
2022/02/25 00:33:42;;;;;;;7.97;2.15;;;;;;;12.75;44.03;101607.91;4935582;29;20032;-80
2022/02/25 00:36:07;;;;;;;6.32;2.17;;;;;;;12.91;43.54;101611.94;4935459;29;20033;-80
2022/02/25 00:38:33;;;;;;;12.95;2.10;;;;;;;12.91;43.45;101617.41;4935487;29;20038;-79
2022/02/25 00:40:59;;;;;;;7.63;1.98;;;;;;;13.04;43.14;101616.59;4935380;29;20032;-79
2022/02/25 00:43:24;;;;;;;10.25;2.45;;;;;;;13.09;42.97;101639.56;4935341;29;20036;-79
2022/02/25 00:45:50;;;;;;;11.23;2.05;;;;;;;13.03;43.03;101647.06;4935373;29;20074;-80
2022/02/25 00:48:16;;;;;;;10.80;2.13;;;;;;;13.05;42.91;101659.34;4935246;29;20478;-79
2022/02/25 00:50:41;;;;;;;17.23;4.32;;;;;;;12.87;43.35;101671.28;4935285;29;20032;-79
2022/02/25 00:53:07;;;;;;;18.40;3.75;;;;;;;13.01;42.93;101671.28;4935313;29;20051;-79
2022/02/25 00:55:32;;;;;;;8.45;2.33;;;;;;;13.10;42.63;101665.88;4935133;29;20401;-79
2022/02/25 00:57:59;;;;;;;10.30;2.58;;;;;;;13.09;42.53;101675.22;4918013;29;20075;-79
2022/02/25 01:00:26;;;;;;;9.13;2.38;;;;;;;13.12;42.25;101683.63;4917995;29;20039;-80
2022/02/25 01:02:52;;;;;;;13.50;3.67;;;;;;;13.13;42.39;101684.44;4935023;29;20032;-79
2022/02/25 01:05:18;;;;;;;12.07;2.90;;;;;;;13.14;42.33;101692.38;4934987;29;20095;-79
2022/02/25 01:07:46;;;;;;;10.63;2.38;;;;;;;13.03;42.52;101701.94;4935052;29;20034;-79
2022/02/25 01:10:15;;;;;;;8.48;2.67;;;;;;;13.12;42.50;101707.53;4936213;29;20032;-80
2022/02/25 01:12:42;;;;;;;10.57;3.57;;;;;;;13.14;42.29;101708.03;4938880;29;20028;-79
2022/02/25 01:15:08;;;;;;;8.82;3.25;;;;;;;13.20;42.14;101715.88;4939078;29;20644;-81
2022/02/25 01:17:34;;;;;;;12.30;2.65;;;;;;;13.18;42.35;101720.84;4939003;29;20038;-79
2022/02/25 01:20:01;;;;;;;10.98;2.25;;;;;;;13.20;42.35;101726.03;4938970;29;20036;-79
2022/02/25 01:22:27;;;;;;;10.27;3.08;;;;;;;13.22;42.05;101715.56;4938853;29;20034;-79
2022/02/25 01:24:53;;;;;;;10.27;3.22;;;;;;;13.05;42.39;101722.47;4938854;29;20043;-79
2022/02/25 01:27:19;;;;;;;15.57;3.50;;;;;;;13.05;42.30;101727.94;4938815;29;20107;-79
2022/02/25 01:29:45;;;;;;;15.23;2.85;;;;;;;13.19;42.06;101736.19;4921561;29;20054;-79
2022/02/25 01:32:11;;;;;;;9.90;2.80;;;;;;;13.13;42.02;101745.63;4938684;29;20478;-79
2022/02/25 01:34:37;;;;;;;8.32;2.42;;;;;;;13.16;42.22;101745.03;4938710;29;20031;-78
2022/02/25 01:37:03;;;;;;;8.57;3.65;;;;;;;13.01;42.14;101748.09;4938537;29;20038;-79
2022/02/25 01:39:29;;;;;;;10.23;3.33;;;;;;;13.08;42.06;101748.50;4938614;29;20122;-79
2022/02/25 01:41:55;;;;;;;7.55;2.78;;;;;;;12.98;42.14;101759.66;4938440;29;20495;-79
2022/02/25 01:44:24;;;;;;;14.20;3.50;;;;;;;12.90;42.17;101760.38;4938290;29;20038;-79
2022/02/25 01:46:55;;;;;;;11.48;2.90;;;;;;;12.81;42.34;101759.44;4938464;29;20062;-79
2022/02/25 01:49:23;;;;;;;14.10;3.10;;;;;;;12.78;42.70;101766.38;4938414;29;20095;-79
2022/02/25 01:51:52;;;;;;;10.80;2.58;;;;;;;12.68;42.78;101761.84;4938327;29;20028;-79
2022/02/25 01:54:18;;;;;;;10.48;3.03;;;;;;;12.86;42.51;101756.63;4938363;29;20031;-79
2022/02/25 01:56:44;;;;;;;11.10;2.75;;;;;;;12.80;42.55;101757.81;4921161;29;20035;-79
2022/02/25 01:59:13;;;;;;;10.15;2.25;;;;;;;12.94;42.10;101761.41;4938100;29;20027;-79
2022/02/25 02:01:39;;;;;;;13.15;3.33;;;;;;;12.77;42.42;101771.03;4938175;29;20490;-79
2022/02/25 02:04:05;;;;;;;12.82;2.97;;;;;;;12.91;42.04;101775.69;4937899;29;20063;-79
2022/02/25 02:06:31;;;;;;;11.23;2.47;;;;;;;12.85;42.49;101782.44;4938144;29;20035;-80
2022/02/25 02:08:57;;;;;;;6.88;2.22;;;;;;;12.64;42.61;101777.31;4937886;29;20406;-79
2022/02/25 02:11:30;;;;;;;9.52;2.28;;;;;;;12.59;42.82;101780.13;4937950;29;20114;-79
2022/02/25 02:13:56;;;;;;;8.82;2.13;;;;;;;12.49;42.88;101781.13;4937823;29;20075;-80
2022/02/25 02:16:22;;;;;;;6.65;2.00;;;;;;;12.28;43.65;101784.50;4937997;29;20024;-80
2022/02/25 02:18:48;;;;;;;12.75;2.28;;;;;;;12.51;42.97;101794.53;4937850;29;20173;-79
2022/02/25 02:21:13;;;;;;;11.43;2.72;;;;;;;12.64;42.73;101793.75;4936878;29;20555;-79
2022/02/25 02:23:39;;;;;;;6.38;1.92;;;;;;;12.40;43.42;101793.91;4937419;29;20056;-79
2022/02/25 02:26:04;;;;;;;8.38;2.65;;;;;;;12.58;43.11;101794.94;4937782;29;20035;-79
2022/02/25 02:28:30;;;;;;;13.55;2.70;;;;;;;12.25;43.97;101794.16;4937698;29;20078;-80
2022/02/25 02:30:55;;;;;;;11.38;2.55;;;;;;;12.60;43.15;101811.91;4937698;29;20039;-79
2022/02/25 02:33:21;;;;;;;10.52;2.53;;;;;;;12.61;43.07;101805.31;4937576;29;20036;-79
2022/02/25 02:35:47;;;;;;;10.32;2.65;;;;;;;12.72;42.82;101816.94;4937629;29;20031;-78
2022/02/25 02:38:13;;;;;;;9.57;2.42;;;;;;;12.67;42.94;101815.06;4937577;29;20043;-80
2022/02/25 02:40:39;;;;;;;16.50;3.13;;;;;;;12.74;42.83;101820.19;4937505;29;20372;-79
2022/02/25 02:43:06;;;;;;;12.70;2.55;;;;;;;12.67;43.06;101827.97;4937414;29;20031;-80
2022/02/25 02:45:32;;;;;;;9.00;2.50;;;;;;;12.62;43.30;101834.38;4920157;29;20038;-79
2022/02/25 02:47:58;;;;;;;16.70;2.78;;;;;;;12.46;43.79;101828.31;4937316;29;20465;-79
2022/02/25 02:50:24;;;;;;;13.48;2.72;;;;;;;12.44;43.67;101833.28;4937396;29;20115;-79
2022/02/25 02:52:50;;;;;;;12.13;2.92;;;;;;;12.58;43.50;101833.34;4937315;29;20108;-79
2022/02/25 02:55:16;;;;;;;10.15;2.88;;;;;;;12.75;42.99;101835.50;4937278;29;20036;-79
2022/02/25 02:57:43;;;;;;;12.68;2.95;;;;;;;12.70;43.09;101835.63;4920159;29;20394;-79
2022/02/25 03:00:10;;;;;;;10.93;2.50;;;;;;;12.71;43.13;101839.97;4937144;29;20031;-79
2022/02/25 03:02:36;;;;;;;13.05;2.55;;;;;;;12.55;43.42;101844.91;4937179;29;20043;-80
2022/02/25 03:05:01;;;;;;;8.73;2.20;;;;;;;12.69;43.22;101843.00;4936890;29;20044;-79
2022/02/25 03:07:27;;;;;;;16.33;3.15;;;;;;;12.61;43.35;101845.63;4937053;29;20038;-79
2022/02/25 03:09:53;;;;;;;11.73;2.10;;;;;;;12.39;43.78;101843.50;4936949;29;20035;-78
2022/02/25 03:12:19;;;;;;;12.38;2.33;;;;;;;12.57;43.46;101842.69;4936933;29;20475;-79
2022/02/25 03:14:48;;;;;;;9.35;2.53;;;;;;;12.44;43.66;101855.22;4936956;29;20038;-79
2022/02/25 03:17:14;;;;;;;10.65;3.58;;;;;;;12.44;44.02;101849.72;4936654;29;20067;-79
2022/02/25 03:19:43;;;;;;;12.73;2.60;;;;;;;12.29;44.27;101865.59;4936711;29;20471;-79
2022/02/25 03:22:09;;;;;;;16.92;3.47;;;;;;;12.06;44.55;101859.09;4936901;29;20028;-78
2022/02/25 03:24:35;;;;;;;10.73;2.78;;;;;;;12.47;43.76;101864.78;4936730;29;20039;-78
2022/02/25 03:27:01;;;;;;;7.60;3.58;;;;;;;12.49;43.32;101868.84;4936640;29;20027;-79
2022/02/25 03:29:27;;;;;;;10.95;2.40;;;;;;;12.49;43.55;101879.00;4936512;29;20031;-78
2022/02/25 03:31:53;;;;;;;7.60;1.95;;;;;;;12.40;43.96;101880.78;4919308;29;20055;-79
2022/02/25 03:34:19;;;;;;;16.05;3.25;;;;;;;12.33;44.02;101883.09;4936065;29;20024;-79
2022/02/25 03:36:44;;;;;;;16.65;4.15;;;;;;;12.75;42.88;101877.47;4936453;29;20024;-79
2022/02/25 03:39:10;;;;;;;11.18;2.63;;;;;;;12.74;43.00;101886.00;4936500;29;20062;-79
2022/02/25 03:41:35;;;;;;;8.50;2.42;;;;;;;12.71;42.95;101887.41;4936422;29;20051;-79
2022/02/25 03:44:01;;;;;;;7.72;1.85;;;;;;;12.69;43.02;101894.28;4936384;29;20023;-79
2022/02/25 03:46:27;;;;;;;12.18;3.03;;;;;;;12.67;43.11;101896.53;4919189;29;20557;-79
2022/02/25 03:48:53;;;;;;;12.55;2.83;;;;;;;12.70;42.84;101899.50;4936103;29;20490;-78
2022/02/25 03:51:21;;;;;;;10.00;3.30;;;;;;;12.82;42.60;101909.19;4919047;29;20135;-79
2022/02/25 03:53:48;;;;;;;10.93;2.55;;;;;;;12.69;42.83;101908.81;4936234;29;20028;-78
2022/02/25 03:56:15;;;;;;;7.88;2.72;;;;;;;12.53;43.24;101918.41;4936215;29;20382;-78
2022/02/25 03:58:41;;;;;;;9.00;1.95;;;;;;;12.45;43.33;101927.28;4936121;29;20034;-80
2022/02/25 04:01:07;;;;;;;10.30;4.03;;;;;;;12.75;42.52;101928.75;4936036;29;20032;-79
2022/02/25 04:03:33;;;;;;;16.70;2.80;;;;;;;12.72;42.78;101932.91;4936088;29;20406;-78
2022/02/25 04:05:58;;;;;;;11.02;3.25;;;;;;;12.73;42.67;101934.53;4915414;29;20074;-79
2022/02/25 04:08:24;;;;;;;12.13;2.67;;;;;;;12.67;42.90;101935.72;4915491;29;20507;-79
2022/02/25 04:10:50;;;;;;;9.73;3.13;;;;;;;12.67;42.82;101934.91;4916911;29;20039;-79
2022/02/25 04:13:17;;;;;;;10.60;2.97;;;;;;;12.73;42.50;101939.22;4916969;29;20055;-80
2022/02/25 04:15:42;;;;;;;11.40;2.33;;;;;;;12.70;42.50;101946.13;4916827;29;20119;-79
2022/02/25 04:18:10;;;;;;;8.73;2.65;;;;;;;12.75;42.45;101939.72;4916709;29;20578;-79
2022/02/25 04:20:36;;;;;;;12.20;2.60;;;;;;;12.68;42.56;101948.31;4916842;29;20024;-79
2022/02/25 04:23:03;;;;;;;5.55;2.20;;;;;;;12.52;42.85;101946.94;4916680;29;20216;-79
2022/02/25 04:25:29;;;;;;;12.85;2.25;;;;;;;12.71;42.49;101949.69;4916723;29;20024;-79
2022/02/25 04:27:55;;;;;;;10.73;2.85;;;;;;;12.85;42.19;101955.22;4916590;29;20020;-79
2022/02/25 04:30:22;;;;;;;12.15;2.50;;;;;;;12.75;42.49;101965.22;4916612;29;20028;-79
2022/02/25 04:32:48;;;;;;;10.77;2.20;;;;;;;12.71;42.54;101961.47;4916607;29;20387;-79
2022/02/25 04:35:14;;;;;;;10.60;2.13;;;;;;;12.83;42.30;101973.88;4916587;29;20036;-80
2022/02/25 04:37:41;;;;;;;9.80;2.60;;;;;;;12.81;42.34;101978.88;4916557;29;20105;-79
2022/02/25 04:40:07;;;;;;;9.50;2.45;;;;;;;12.87;42.12;101978.50;4916562;29;20035;-80
2022/02/25 04:42:33;;;;;;;10.57;2.42;;;;;;;12.83;42.24;101996.66;4916403;29;20035;-79
2022/02/25 04:44:58;;;;;;;11.93;2.80;;;;;;;12.84;42.16;101989.22;4915777;29;20555;-80
2022/02/25 04:47:24;;;;;;;12.63;2.50;;;;;;;12.68;42.47;102002.34;4916445;29;20052;-79
2022/02/25 04:49:50;;;;;;;10.50;2.63;;;;;;;12.78;42.21;102002.22;4916349;29;20032;-79
2022/02/25 04:52:17;;;;;;;8.98;2.10;;;;;;;12.73;42.56;102010.53;4930775;28;20517;-79
2022/02/25 04:54:44;;;;;;;10.20;2.67;;;;;;;12.75;42.38;101997.31;4916386;29;20028;-78
2022/02/25 04:57:10;;;;;;;8.85;2.25;;;;;;;12.73;42.40;102003.09;4916293;29;20039;-79
2022/02/25 04:59:37;;;;;;;17.10;2.65;;;;;;;12.76;42.48;102008.00;4916213;29;20487;-79
2022/02/25 05:02:03;;;;;;;5.45;2.03;;;;;;;12.54;42.87;102012.44;4916235;29;20024;-79
2022/02/25 05:04:28;;;;;;;9.18;2.40;;;;;;;12.78;42.42;102022.25;4920332;29;20044;-79
2022/02/25 05:06:54;;;;;;;8.80;3.05;;;;;;;12.73;42.55;102030.53;4935211;29;20031;-79
2022/02/25 05:09:19;;;;;;;11.85;2.10;;;;;;;12.80;42.35;102034.84;4936365;29;20059;-80
2022/02/25 05:11:45;;;;;;;8.30;1.90;;;;;;;12.66;42.78;102035.56;4934426;29;20032;-80
2022/02/25 05:20:15;;;;;;;13.52;2.92;;;;;;;12.66;42.43;102035.56;4918030;29;20107;-79
2022/02/25 05:22:25;;;;;;;7.13;2.58;;;;;;;12.39;43.37;102027.16;4935376;29;20106;-79
2022/02/25 05:24:50;;;;;;;7.80;3.25;;;;;;;12.41;43.35;102030.44;4935048;29;20031;-79
2022/02/25 05:27:16;;;;;;;10.48;3.67;;;;;;;12.44;43.29;102033.38;4915550;29;20079;-79
2022/02/25 05:29:42;;;;;;;12.32;3.08;;;;;;;12.52;42.95;102031.91;4934078;29;20035;-80
2022/02/25 05:32:08;;;;;;;8.52;2.38;;;;;;;12.45;43.15;102035.00;4934401;29;20487;-79
2022/02/25 05:34:34;;;;;;;6.97;2.10;;;;;;;12.49;43.17;102048.97;4934552;29;20038;-79
2022/02/25 05:37:00;;;;;;;8.50;2.28;;;;;;;12.32;43.19;102052.19;4934779;29;20083;-80
2022/02/25 05:39:26;;;;;;;7.20;2.40;;;;;;;12.36;43.34;102046.94;4934358;29;20083;-80
2022/02/25 05:41:51;;;;;;;8.93;3.35;;;;;;;12.34;43.37;102051.91;4934564;29;20034;-79
2022/02/25 05:44:17;;;;;;;10.55;2.28;;;;;;;12.30;43.57;102070.03;4934444;29;20034;-80
2022/02/25 05:46:42;;;;;;;12.48;2.25;;;;;;;12.36;43.32;102075.16;4934699;29;20079;-79
2022/02/25 05:49:08;;;;;;;20.17;2.78;;;;;;;12.39;43.05;102081.97;4934632;29;20115;-79
2022/02/25 05:51:33;;;;;;;7.90;2.55;;;;;;;12.21;43.78;102073.41;4934652;29;20028;-80
2022/02/25 05:54:00;;;;;;;7.80;1.98;;;;;;;12.29;43.44;102088.41;4934477;29;20425;-80
2022/02/25 05:56:26;;;;;;;15.27;2.25;;;;;;;12.31;43.58;102094.41;4935792;29;20035;-80
2022/02/25 05:58:53;;;;;;;13.43;2.17;;;;;;;12.35;43.13;102102.88;4936369;29;20470;-80
2022/02/25 06:01:19;;;;;;;8.57;1.92;;;;;;;12.34;43.21;102101.22;4938135;29;20471;-79
2022/02/25 06:03:45;;;;;;;8.77;1.98;;;;;;;12.40;42.95;102102.81;4937871;29;20024;-79
2022/02/25 06:06:10;;;;;;;7.75;2.22;;;;;;;12.35;43.26;102113.81;4937795;29;20063;-79
2022/02/25 06:08:36;;;;;;;12.35;2.78;;;;;;;12.47;42.92;102127.97;4937808;29;20042;-79
2022/02/25 06:11:02;;;;;;;16.05;3.30;;;;;;;12.44;43.08;102134.00;4937932;29;20115;-79
2022/02/25 06:13:28;;;;;;;8.25;2.15;;;;;;;12.36;43.14;102142.88;4937625;29;20040;-79
2022/02/25 06:15:54;;;;;;;17.95;3.05;;;;;;;12.35;43.20;102141.25;4937879;29;20034;-78
2022/02/25 06:18:19;;;;;;;11.68;2.63;;;;;;;12.32;43.22;102152.75;4936666;29;20031;-81
2022/02/25 06:20:45;;;;;;;13.18;2.60;;;;;;;12.26;43.39;102159.44;4936872;29;20031;-80
2022/02/25 06:23:11;;;;;;;13.07;2.28;;;;;;;12.35;42.94;102168.66;4936688;29;20028;-80
2022/02/25 06:25:37;;;;;;;15.05;2.63;;;;;;;12.28;43.17;102168.16;4919795;29;20024;-79
2022/02/25 06:28:12;;;;;;;11.30;2.72;;;;;;;12.31;43.00;102178.53;4919233;29;20039;-78
2022/02/25 06:30:37;;;;;;;12.23;2.22;;;;;;;12.29;43.20;102181.56;4936494;29;20102;-79
2022/02/25 06:33:03;;;;;;;12.20;2.63;;;;;;;12.43;42.75;102176.22;4936566;29;20043;-79
2022/02/25 06:35:29;;;;;;;13.95;2.80;;;;;;;12.32;42.94;102185.66;4936545;29;20028;-78
2022/02/25 06:37:59;;;;;;;12.77;2.83;;;;;;;12.18;43.22;102188.28;4936559;29;20031;-79
2022/02/25 06:40:26;;;;;;;14.90;2.40;;;;;;;12.04;43.45;102196.34;4936276;29;20034;-79
2022/02/25 06:42:52;;;;;;;11.63;2.67;;;;;;;12.12;43.46;102200.38;4936271;29;20115;-79
2022/02/25 06:45:20;;;;;;;6.18;2.03;;;;;;;12.12;43.36;102200.38;4936697;29;20533;-79
2022/02/25 06:47:46;;;;;;;11.63;2.67;;;;;;;12.02;43.68;102211.44;4936218;29;20016;-78
2022/02/25 06:50:14;;;;;;;8.75;2.20;;;;;;;11.98;43.51;102210.38;4936256;29;20019;-78
2022/02/25 06:52:41;;;;;;;12.55;2.05;;;;;;;12.13;43.35;102219.28;4919178;29;20039;-78
2022/02/25 06:55:07;;;;;;;18.27;4.18;;;;;;;12.09;43.22;102223.72;4936183;29;20028;-78
2022/02/25 06:57:33;;;;;;;7.68;1.83;;;;;;;12.17;43.10;102228.56;4935808;29;20063;-78
2022/02/25 06:59:58;;;;;;;11.00;2.90;;;;;;;12.23;42.81;102232.88;4936395;29;20032;-78
2022/02/25 07:02:24;;;;;;;9.32;2.15;;;;;;;12.05;43.31;102238.25;4936900;29;20677;-78
2022/02/25 07:04:49;;;;;;;15.63;3.05;;;;;;;12.19;42.84;102237.31;4937004;29;20052;-81
2022/02/25 07:07:15;;;;;;;10.40;2.70;;;;;;;12.21;42.74;102242.50;4919151;29;20036;-78
2022/02/25 07:09:41;;;;;;;39.30;4.60;;;;;;;12.14;42.94;102244.75;4936379;29;20032;-78
2022/02/25 07:12:07;;;;;;;10.35;2.47;;;;;;;12.20;42.72;102243.59;4919753;29;20471;-80
2022/02/25 07:14:35;;;;;;;11.98;2.50;;;;;;;12.31;42.53;102247.06;4936668;29;20055;-81
2022/02/25 07:17:01;;;;;;;20.85;5.38;;;;;;;12.27;42.25;102256.97;4936903;29;20024;-79
2022/02/25 07:19:27;;;;;;;15.23;3.38;;;;;;;12.27;42.31;102265.19;4936335;29;20032;-78
2022/02/25 07:21:53;;;;;;;13.35;3.40;;;;;;;12.30;42.64;102267.34;4919469;29;20028;-79
2022/02/25 07:24:18;;;;;;;19.13;4.65;;;;;;;12.19;42.81;102275.66;4936317;29;20024;-79
2022/02/25 07:26:45;;;;;;;18.10;3.40;;;;;;;12.00;43.28;102271.97;4919279;29;20023;-79
2022/02/25 07:29:11;;;;;;;12.35;3.20;;;;;;;11.99;43.34;102270.34;4936401;29;20119;-83
2022/02/25 07:31:40;;;;;;;11.88;3.25;;;;;;;11.99;43.56;102270.34;4936648;29;20502;-78
2022/02/25 07:34:06;;;;;;;12.50;3.13;;;;;;;11.91;43.71;102273.69;4936487;29;20103;-79
2022/02/25 07:36:33;;;;;;;22.55;4.78;;;;;;;12.02;43.56;102278.00;4936296;29;20309;-79
2022/02/25 07:38:59;;;;;;;14.02;3.72;;;;;;;11.99;43.81;102297.75;4936284;29;20026;-79
2022/02/25 07:41:24;;;;;;;24.02;3.90;;;;;;;11.97;43.59;102299.94;4919097;29;20057;-79
2022/02/25 07:43:50;;;;;;;13.05;3.55;;;;;;;12.03;43.68;102309.78;4936369;29;20036;-82
2022/02/25 07:46:16;;;;;;;18.25;4.40;;;;;;;11.93;43.85;102304.34;4936103;29;20024;-76
2022/02/25 07:48:43;;;;;;;17.63;4.15;;;;;;;12.03;43.77;102301.56;4936088;29;20498;-76
2022/02/25 07:51:09;;;;;;;11.77;3.70;;;;;;;11.93;43.97;102301.59;4936247;29;20032;-77
2022/02/25 07:53:35;;;;;;;20.42;4.03;;;;;;;11.86;44.11;102303.84;4936150;29;20019;-78
2022/02/25 07:56:01;;;;;;;9.23;2.92;;;;;;;11.83;44.24;102301.69;4936111;29;20075;-79
2022/02/25 07:58:26;;;;;;;17.88;4.53;;;;;;;12.12;43.57;102316.28;4935626;29;20431;-77
2022/02/25 08:00:52;;;;;;;16.70;3.58;;;;;;;11.93;43.95;102307.09;4936108;29;20095;-78
2022/02/25 08:03:17;;;;;;;12.65;3.05;;;;;;;11.81;44.10;102318.41;4936038;29;20450;-78
2022/02/25 08:05:43;;;;;;;17.83;4.20;;;;;;;11.78;44.51;102324.41;4934596;29;20062;-77
2022/02/25 08:08:09;;;;;;;11.50;3.13;;;;;;;12.02;43.90;102330.06;4935823;29;20079;-79
2022/02/25 08:10:35;;;;;;;12.18;3.92;;;;;;;11.70;44.83;102335.13;4934523;29;20031;-77
2022/02/25 08:13:03;;;;;;;13.55;3.50;;;;;;;11.97;44.17;102345.69;4935932;29;20024;-78
2022/02/25 08:15:33;;;;;;;12.60;3.92;;;;;;;12.08;44.00;102345.34;4935755;29;20052;-79
2022/02/25 08:17:59;;;;;;;10.82;3.15;;;;;;;12.20;43.78;102355.97;4934453;29;20706;-79
2022/02/25 08:20:24;;;;;;;21.88;4.55;;;;;;;12.31;43.50;102368.47;4934146;29;20127;-78
2022/02/25 08:22:50;;;;;;;12.68;3.88;;;;;;;12.39;43.44;102372.53;4934410;29;20118;-79
2022/02/25 08:25:16;;;;;;;18.45;4.28;;;;;;;12.44;43.35;102378.81;4935709;29;20031;-79
2022/02/25 08:27:43;;;;;;;15.80;3.55;;;;;;;12.48;43.27;102385.38;4935226;29;20038;-79
2022/02/25 08:30:14;;;;;;;8.80;2.85;;;;;;;12.57;43.32;102385.56;4943722;29;20043;-79
2022/02/25 08:32:45;;;;;;;15.13;3.55;;;;;;;12.63;43.00;102389.91;4934445;29;20067;-76
2022/02/25 08:35:11;;;;;;;14.38;4.30;;;;;;;12.73;42.89;102392.56;4935397;29;20601;-78
2022/02/25 08:37:40;;;;;;;12.90;3.40;;;;;;;12.85;42.81;102400.44;4930530;29;20035;-79
2022/02/25 08:40:06;;;;;;;18.80;3.37;;;;;;;12.73;42.78;102400.78;4925228;29;20031;-80
2022/02/25 08:42:35;;;;;;;12.32;4.05;;;;;;;12.75;43.18;102395.81;4919832;29;20324;-79
2022/02/25 08:45:05;;;;;;;9.65;2.90;;;;;;;12.85;42.88;102403.16;4902679;29;20147;-79
2022/02/25 08:47:31;;;;;;;11.18;2.83;;;;;;;13.10;42.59;102402.09;4919638;29;20035;-80
2022/02/25 08:49:57;;;;;;;19.10;4.63;;;;;;;13.21;42.33;102402.84;4919663;29;20476;-79
2022/02/25 08:52:22;;;;;;;19.75;4.53;;;;;;;13.08;42.87;102415.31;4925970;29;20110;-81
2022/02/25 08:54:49;;;;;;;13.77;3.75;;;;;;;13.19;42.71;102405.84;4934357;29;20034;-79
2022/02/25 08:57:15;;;;;;;15.45;4.45;;;;;;;13.43;42.51;102410.56;4916627;29;20031;-80
2022/02/25 08:59:42;;;;;;;18.02;3.85;;;;;;;13.63;42.16;102407.59;4933517;29;20031;-80
2022/02/25 09:02:08;;;;;;;17.75;4.25;;;;;;;13.76;42.18;102406.06;4931629;29;20442;-80
2022/02/25 09:04:34;;;;;;;17.88;4.50;;;;;;;13.92;42.22;102417.69;4932543;29;20054;-79
2022/02/25 09:07:00;;;;;;;17.52;3.70;;;;;;;14.17;41.77;102425.59;4933545;29;20028;-80
2022/02/25 09:09:26;;;;;;;25.88;4.45;;;;;;;14.25;41.90;102422.16;4933295;29;20039;-80
2022/02/25 09:11:52;;;;;;;13.98;3.83;;;;;;;14.28;41.71;102429.84;4934006;29;20044;-81
2022/02/25 09:14:19;;;;;;;15.07;3.72;;;;;;;14.40;41.62;102419.19;4934263;29;20036;-80
2022/02/25 09:16:45;;;;;;;23.13;5.72;;;;;;;14.42;41.48;102422.44;4916659;29;20061;-81
2022/02/25 09:19:11;;;;;;;15.20;3.65;;;;;;;14.30;41.78;102421.28;4933596;29;20075;-80
2022/02/25 09:21:37;;;;;;;14.18;4.40;;;;;;;14.28;41.67;102424.34;4916426;29;20031;-79
2022/02/25 09:24:03;;;;;;;18.17;3.92;;;;;;;14.40;41.23;102432.13;4934707;29;20406;-78
2022/02/25 09:26:29;;;;;;;18.35;4.35;;;;;;;14.62;41.08;102434.31;4933080;29;20036;-81
2022/02/25 09:28:56;;;;;;;15.45;3.63;;;;;;;14.50;41.33;102439.44;4933311;29;20066;-81
2022/02/25 09:31:22;;;;;;;22.83;4.22;;;;;;;14.61;41.39;102452.75;4914453;29;20107;-79
2022/02/25 09:33:48;;;;;;;15.32;4.18;;;;;;;14.84;40.94;102448.25;4929157;29;20865;-80
2022/02/25 09:36:13;;;;;;;17.77;4.10;;;;;;;14.94;40.82;102450.81;4937122;29;20024;-80
2022/02/25 09:38:40;;;;;;;19.30;4.45;;;;;;;15.13;40.64;102444.47;4938148;29;20114;-80
2022/02/25 09:41:07;;;;;;;17.58;3.88;;;;;;;15.25;40.34;102453.03;4938363;29;20032;-80
2022/02/25 09:43:33;;;;;;;25.05;5.93;;;;;;;15.49;40.20;102453.72;4938513;29;20570;-80
2022/02/25 09:46:01;;;;;;;11.02;3.25;;;;;;;15.71;39.93;102463.22;4938344;29;20036;-78
2022/02/25 09:48:27;;;;;;;22.25;5.07;;;;;;;15.78;40.10;102453.41;4938174;29;20063;-80
2022/02/25 09:50:53;;;;;;;13.80;3.25;;;;;;;15.97;39.68;102464.34;4920869;29;20126;-80
2022/02/25 09:53:19;;;;;;;17.63;4.43;;;;;;;15.77;40.02;102456.50;4921092;29;20126;-80
2022/02/25 09:55:45;;;;;;;20.83;4.32;;;;;;;16.07;39.81;102463.31;4938236;29;20032;-80
2022/02/25 09:58:11;;;;;;;20.45;4.85;;;;;;;16.20;39.65;102456.16;4938169;29;20107;-80
2022/02/25 10:00:39;;;;;;;15.90;4.63;;;;;;;16.28;39.62;102460.94;4920898;29;20111;-80
2022/02/25 10:03:10;;;;;;;23.75;4.85;;;;;;;16.13;39.67;102450.25;4935682;29;20024;-80
2022/02/25 10:05:36;;;;;;;15.35;3.33;;;;;;;15.99;39.81;102466.78;4937170;29;20043;-80
2022/02/25 10:08:20;;;;;;;18.77;3.85;;;;;;;15.80;39.87;102466.91;4905563;29;20046;-80
2022/02/25 10:10:54;;;;;;;16.10;4.50;;;;;;;15.95;39.33;102469.38;4904025;29;20571;-80
2022/02/25 10:13:30;;;;;;;16.23;5.28;;;;;;;16.14;39.21;102473.94;4904300;29;20040;-80
2022/02/25 10:16:00;;;;;;;18.35;4.68;;;;;;;16.12;39.41;102477.00;4922247;29;20027;-79
2022/02/25 10:18:28;;;;;;;18.65;8.52;;;;;;;16.16;39.33;102452.38;4906035;29;20495;-80
2022/02/25 10:21:03;;;;;;;18.98;4.38;;;;;;;16.33;39.19;102472.69;4920413;29;20095;-82
2022/02/25 10:23:43;;;;;;;16.98;4.55;;;;;;;16.52;39.55;102488.25;4921314;29;21982;-81
2022/02/25 10:26:14;;;;;;;17.75;4.65;;;;;;;16.57;38.95;102483.44;4904094;29;20046;-81
2022/02/25 10:28:45;;;;;;;14.30;4.40;;;;;;;16.71;38.78;102490.91;4925122;29;20111;-81
2022/02/25 10:31:14;;;;;;;16.80;4.50;;;;;;;16.79;38.94;102487.38;4908194;29;20047;-81
2022/02/25 10:33:41;;;;;;;20.13;7.55;;;;;;;16.89;38.79;102490.69;4920971;29;20039;-79
2022/02/25 10:36:06;;;;;;;16.45;5.75;;;;;;;17.03;38.78;102496.16;4929981;29;20023;-81
2022/02/25 10:38:37;;;;;;;18.83;5.55;;;;;;;16.97;38.71;102508.47;4912920;29;20039;-83
2022/02/25 10:41:04;;;;;;;16.60;5.35;;;;;;;17.03;38.66;102498.94;4903776;29;20390;-81
2022/02/25 10:43:30;;;;;;;13.35;3.95;;;;;;;17.04;38.89;102500.56;4919757;29;20047;-81
2022/02/25 10:46:09;;;;;;;18.67;5.15;;;;;;;17.20;38.73;102499.03;4921763;29;20489;-81
2022/02/25 10:48:35;;;;;;;19.67;4.63;;;;;;;17.35;38.49;102502.53;4920007;29;20024;-81
2022/02/25 10:51:06;;;;;;;22.33;11.68;;;;;;;17.60;38.06;102495.50;4921350;29;20482;-82
2022/02/25 10:53:34;;;;;;;26.00;10.27;;;;;;;17.60;38.16;102489.97;4903653;29;21592;-80
2022/02/25 10:56:11;;;;;;;12.40;4.50;;;;;;;17.49;38.29;102492.22;4920250;29;20036;-80
2022/02/25 10:58:57;;;;;;;18.15;8.80;;;;;;;17.71;37.93;102492.19;4902915;29;20139;-81
2022/02/25 11:01:35;;;;;;;21.23;6.47;;;;;;;17.88;37.80;102501.69;4918850;29;20070;-82
2022/02/25 11:04:01;;;;;;;13.30;4.85;;;;;;;17.89;38.01;102495.00;4905099;29;20035;-81
2022/02/25 11:06:29;;;;;;;15.88;4.78;;;;;;;17.95;37.68;102496.50;4912442;29;20447;-82
2022/02/25 11:08:55;;;;;;;18.45;6.07;;;;;;;17.96;37.64;102501.72;4919845;29;20095;-82
2022/02/25 11:11:23;;;;;;;18.42;5.40;;;;;;;18.06;37.59;102500.63;4936134;29;20023;-81
2022/02/25 11:13:50;;;;;;;12.45;4.75;;;;;;;18.04;37.66;102500.09;4902525;29;20729;-83
2022/02/25 11:16:18;;;;;;;24.67;8.32;;;;;;;18.06;37.48;102502.53;4919821;29;20090;-80
2022/02/25 11:18:45;;;;;;;15.18;4.60;;;;;;;17.98;37.62;102498.63;4916869;29;20102;-80
2022/02/25 11:21:11;;;;;;;21.67;6.57;;;;;;;18.15;37.43;102504.22;4917594;29;20055;-81
2022/02/25 11:23:39;;;;;;;15.45;4.43;;;;;;;18.10;37.64;102500.78;4915681;29;20115;-80